Accueil
METAR-TAF:

METAR-TAF

Aéroports :

Yap, Yap Island, Micronésie

Aéroport international de Yap

latitude: 09-29N, longitude: 138-05E, altitude: 28 m

Observation

Le bulletin a été fait il y a 30 minutes, à 14:53 UTC
Vent calme
Température 26°C
Humidité 94%
Pression 1009 hPa
Visibilité: 19.3 km
Nuages épars à une hauteur de 1600 ft
Nuages fragmentés à une hauteur de 13000 ft
Ciel couvert à une hauteur de 30000 ft

METAR: PTYA 231453Z 00000KT 12SM SCT016 BKN130 OVC300 26/25 A2980 RMK SLP093 8/171 T02600245 403070258 52003

Heure: 01:23 (15:23 UTC)

Prévision

Le bulletin a été fait il y a 3 heures et 50 minutes, à 11:33 UTC
Prévision valable du 23 à 12 UTC au 24 à 12 UTC
Vent 3 kt de direction variable
Visibilité: 10 km
Nuages épars à une hauteur de 1600 ft
Nuages fragmentés à une hauteur de 12000 ft
averses à proximité

TAF: PTYA 231133Z 2312/2412 VRB03KT P6SM VCSH SCT016 BKN120

Observations et prévisions météorologiques de plus de 4000 aéroports (messages METAR et TAF).

Les stations disponibles sont représentées par des disques jaunes et rouges sur la carte.

Passer la souris dessus pour voir le nom de la station.

Cliquer dessus pour voir les observations et prévisions météorologiques.

Pour changer de carte: cliquez sur les boutons verts avec une croix noire pour zoomer, sur le bouton vert avec un tiret pour effectuer un zoom arrière, ou sur les flèches vertes pour les cartes adjacentes.


METAR-TAF: